Time;durP1;ratioP1;P1;durP2;ratioP2;P2;SDS_P1;SDS_P2;PMS_P1;PMS_P2;Temp;Humidity;BMP_temperature;BMP_pressure;BME280_temperature;BME280_humidity;BME280_pressure;Samples;Min_cycle;Max_cycle;Signal;HPM_P1;HPM_P2
2021/10/05 00:00:03;;;;;;;1.42;0.77;;;12.90;94.40;;;;;;5028628;28;20018;-76
2021/10/05 00:02:28;;;;;;;0.50;0.50;;;12.90;94.40;;;;;;5013012;28;20048;-77
2021/10/05 00:04:54;;;;;;;4.07;0.73;;;13.00;94.40;;;;;;5013340;28;20340;-75
2021/10/05 00:07:20;;;;;;;3.25;1.00;;;12.90;94.40;;;;;;5013270;28;20111;-75
2021/10/05 00:09:45;;;;;;;3.72;1.02;;;12.90;94.40;;;;;;5011328;28;20030;-76
2021/10/05 00:12:11;;;;;;;2.15;1.20;;;12.90;94.40;;;;;;5013120;28;20032;-75
2021/10/05 00:14:37;;;;;;;2.25;0.90;;;12.90;94.70;;;;;;5012523;28;20018;-75
2021/10/05 00:17:03;;;;;;;0.45;0.40;;;12.90;94.50;;;;;;5013088;28;20034;-75
2021/10/05 00:19:28;;;;;;;1.48;0.80;;;12.90;94.70;;;;;;5028169;28;20379;-76
2021/10/05 00:21:54;;;;;;;2.35;1.00;;;12.90;94.40;;;;;;5012398;28;20045;-76
2021/10/05 00:24:20;;;;;;;3.55;1.05;;;12.80;94.50;;;;;;5012833;28;20030;-76
2021/10/05 00:26:46;;;;;;;1.17;0.93;;;12.80;94.40;;;;;;5012152;28;20037;-76
2021/10/05 00:29:13;;;;;;;3.65;0.80;;;12.80;94.50;;;;;;5028263;28;20490;-76
2021/10/05 00:31:38;;;;;;;1.63;0.70;;;12.80;94.50;;;;;;5012306;28;20076;-76
2021/10/05 00:34:04;;;;;;;1.15;0.98;;;12.80;94.50;;;;;;5012728;28;20030;-76
2021/10/05 00:36:30;;;;;;;0.90;0.70;;;12.80;94.70;;;;;;5027650;28;20037;-76
2021/10/05 00:38:55;;;;;;;1.60;0.80;;;12.80;94.40;;;;;;5012155;28;20025;-76
2021/10/05 00:41:21;;;;;;;1.15;0.80;;;12.80;94.40;;;;;;5027822;28;20128;-76
2021/10/05 00:43:47;;;;;;;1.83;0.77;;;12.80;94.40;;;;;;5012078;28;20430;-76
2021/10/05 00:46:13;;;;;;;1.75;0.75;;;12.80;94.50;;;;;;5012920;28;20125;-76
2021/10/05 00:48:38;;;;;;;2.28;0.88;;;12.70;94.50;;;;;;5012083;28;20026;-76
2021/10/05 00:51:04;;;;;;;2.20;0.85;;;12.80;94.50;;;;;;5012361;28;20080;-76
2021/10/05 00:53:30;;;;;;;1.00;0.73;;;12.80;94.50;;;;;;5027776;28;20385;-75
2021/10/05 00:55:56;;;;;;;2.38;0.98;;;12.70;94.50;;;;;;5010434;28;20022;-76
2021/10/05 00:58:21;;;;;;;1.80;0.80;;;12.70;94.50;;;;;;5027644;28;20064;-76
2021/10/05 01:00:47;;;;;;;1.50;0.80;;;12.70;94.50;;;;;;5027143;28;20458;-76
2021/10/05 01:03:13;;;;;;;1.05;0.80;;;12.70;94.50;;;;;;5011249;28;20021;-76
2021/10/05 01:05:38;;;;;;;2.78;0.88;;;12.70;94.50;;;;;;5011869;28;20052;-76
2021/10/05 01:08:04;;;;;;;2.45;0.75;;;12.70;94.50;;;;;;5010998;28;20026;-76
2021/10/05 01:10:31;;;;;;;2.20;0.70;;;12.70;94.50;;;;;;5011011;28;20459;-76
2021/10/05 01:12:56;;;;;;;1.40;0.82;;;12.70;94.50;;;;;;5011789;28;20084;-76
2021/10/05 01:15:27;;;;;;;1.42;0.80;;;12.60;94.50;;;;;;5012663;28;20029;-76
2021/10/05 01:17:53;;;;;;;1.27;0.85;;;12.70;94.50;;;;;;5011802;28;20034;-76
2021/10/05 01:20:19;;;;;;;1.23;0.82;;;12.70;94.50;;;;;;5012297;28;20033;-76
2021/10/05 01:22:45;;;;;;;4.22;1.23;;;12.70;94.50;;;;;;5026727;28;20467;-76
2021/10/05 01:25:14;;;;;;;1.05;0.70;;;12.70;94.50;;;;;;5010865;28;20047;-75
2021/10/05 01:27:52;;;;;;;1.52;0.80;;;12.70;94.50;;;;;;5010246;28;20060;-76
2021/10/05 01:30:20;;;;;;;3.15;0.98;;;12.70;94.60;;;;;;5012339;28;20080;-76
2021/10/05 01:32:47;;;;;;;2.47;0.88;;;12.70;94.50;;;;;;5026635;28;20022;-76
2021/10/05 01:35:14;;;;;;;1.48;0.90;;;12.60;94.50;;;;;;5012060;28;20029;-76
2021/10/05 01:37:40;;;;;;;1.40;0.85;;;12.60;94.50;;;;;;5013532;28;20524;-76
2021/10/05 01:40:08;;;;;;;1.65;1.00;;;12.60;94.50;;;;;;5030717;28;20025;-75
2021/10/05 01:42:35;;;;;;;1.65;0.80;;;12.60;94.60;;;;;;5030845;28;20046;-76
2021/10/05 01:45:01;;;;;;;1.35;0.82;;;12.60;94.60;;;;;;5030512;28;20041;-76
2021/10/05 01:47:27;;;;;;;1.33;0.70;;;12.60;94.60;;;;;;5014584;28;20034;-76
2021/10/05 01:49:53;;;;;;;1.17;0.80;;;12.60;94.70;;;;;;5015319;28;20018;-76
2021/10/05 01:52:19;;;;;;;1.60;0.80;;;12.50;94.60;;;;;;5015902;28;20030;-75
2021/10/05 01:54:44;;;;;;;2.53;1.00;;;12.50;94.70;;;;;;5030472;28;20445;-76
2021/10/05 01:57:10;;;;;;;2.30;1.00;;;12.50;94.70;;;;;;5014747;28;20359;-76
2021/10/05 01:59:36;;;;;;;1.27;0.90;;;12.50;94.70;;;;;;5015664;28;20022;-75
2021/10/05 02:02:01;;;;;;;3.42;0.90;;;12.50;94.70;;;;;;5014845;28;20030;-76
2021/10/05 02:04:27;;;;;;;2.00;0.88;;;12.50;94.70;;;;;;5031021;28;20022;-76
2021/10/05 02:06:53;;;;;;;1.77;0.80;;;12.50;94.70;;;;;;5014972;28;20149;-76
2021/10/05 02:09:18;;;;;;;2.40;1.00;;;12.50;94.80;;;;;;5014339;28;20474;-76
2021/10/05 02:11:44;;;;;;;1.38;1.00;;;12.50;94.80;;;;;;5029988;28;20109;-76
2021/10/05 02:14:10;;;;;;;0.68;0.60;;;12.50;94.80;;;;;;5015646;28;20477;-76
2021/10/05 02:16:36;;;;;;;0.80;0.77;;;12.40;94.80;;;;;;5015103;28;20129;-75
2021/10/05 02:19:03;;;;;;;1.35;0.80;;;12.40;94.80;;;;;;5014712;28;20029;-76
2021/10/05 02:21:29;;;;;;;1.02;0.80;;;12.40;95.00;;;;;;5030515;28;20080;-76
2021/10/05 02:26:40;;;;;;;1.33;0.98;;;12.50;94.80;;;;;;5015221;28;20096;-76
2021/10/05 02:29:06;;;;;;;2.70;1.00;;;12.50;94.80;;;;;;5015215;28;20064;-75
2021/10/05 02:31:32;;;;;;;3.47;0.90;;;12.50;94.80;;;;;;5013771;28;20026;-75
2021/10/05 02:33:58;;;;;;;4.68;1.00;;;12.40;94.80;;;;;;5013194;28;20052;-75
2021/10/05 02:36:24;;;;;;;1.08;0.90;;;12.50;94.80;;;;;;5014732;28;20033;-76
2021/10/05 02:38:49;;;;;;;1.60;0.95;;;12.40;94.80;;;;;;5013141;28;20030;-76
2021/10/05 02:41:15;;;;;;;1.63;0.82;;;12.50;94.90;;;;;;5014685;28;20502;-76
2021/10/05 02:43:41;;;;;;;2.10;1.02;;;12.50;94.80;;;;;;5030072;28;20534;-76
2021/10/05 02:46:06;;;;;;;2.08;0.98;;;12.50;94.80;;;;;;5029376;28;20541;-76
2021/10/05 02:48:32;;;;;;;1.23;0.77;;;12.50;94.80;;;;;;5013570;28;20040;-75
2021/10/05 02:50:58;;;;;;;1.02;0.80;;;12.50;94.90;;;;;;5013857;28;20029;-75
2021/10/05 02:53:23;;;;;;;0.95;0.73;;;12.50;94.90;;;;;;5012683;28;20022;-75
2021/10/05 02:55:49;;;;;;;1.42;0.90;;;12.50;94.90;;;;;;5013325;28;20057;-76
2021/10/05 02:58:16;;;;;;;0.85;0.75;;;12.50;94.80;;;;;;5029171;28;20473;-76
2021/10/05 03:00:43;;;;;;;1.70;1.05;;;12.40;94.80;;;;;;5013418;28;20101;-76
2021/10/05 03:03:09;;;;;;;0.95;0.90;;;12.40;94.80;;;;;;5028985;28;20026;-76
2021/10/05 03:05:35;;;;;;;0.88;0.73;;;12.50;94.90;;;;;;5029506;28;20377;-76
2021/10/05 03:08:03;;;;;;;1.05;0.88;;;12.50;94.90;;;;;;5012457;28;20176;-76
2021/10/05 03:10:29;;;;;;;1.65;0.90;;;12.50;94.90;;;;;;5014208;28;20022;-76
2021/10/05 03:12:54;;;;;;;3.60;0.88;;;12.50;94.90;;;;;;5012418;28;20033;-76
2021/10/05 03:15:20;;;;;;;0.70;0.70;;;12.40;94.90;;;;;;5014203;28;20030;-76
2021/10/05 03:17:46;;;;;;;1.83;0.93;;;12.50;94.90;;;;;;5013968;28;20360;-76
2021/10/05 03:20:11;;;;;;;1.75;1.13;;;12.40;94.90;;;;;;5012902;28;20065;-76
2021/10/05 03:22:37;;;;;;;1.73;0.90;;;12.40;94.90;;;;;;5014365;28;20041;-76
2021/10/05 03:25:04;;;;;;;1.45;0.80;;;12.50;94.90;;;;;;5013492;28;20078;-75
2021/10/05 03:27:31;;;;;;;1.63;1.15;;;12.40;94.90;;;;;;5013717;28;20088;-76
2021/10/05 03:29:57;;;;;;;1.90;1.17;;;12.40;95.00;;;;;;5013403;28;20022;-76
2021/10/05 03:32:23;;;;;;;1.25;0.93;;;12.40;95.00;;;;;;5013920;28;20470;-76
2021/10/05 03:34:49;;;;;;;2.28;1.20;;;12.40;95.00;;;;;;5013336;28;20119;-76
2021/10/05 03:37:14;;;;;;;1.33;1.05;;;12.40;95.00;;;;;;5013932;28;20463;-75
2021/10/05 03:39:40;;;;;;;2.80;1.20;;;12.40;95.00;;;;;;5013916;28;20025;-76
2021/10/05 03:42:06;;;;;;;2.50;1.20;;;12.40;95.00;;;;;;5012844;28;20054;-76
2021/10/05 03:44:32;;;;;;;1.10;1.00;;;12.40;95.00;;;;;;5024676;28;20021;-75
2021/10/05 03:46:59;;;;;;;1.15;0.90;;;12.40;95.10;;;;;;5031759;28;20044;-76
2021/10/05 03:49:25;;;;;;;5.55;1.65;;;12.40;95.00;;;;;;5018823;28;20109;-76
2021/10/05 03:51:50;;;;;;;3.28;1.30;;;12.40;95.10;;;;;;5021209;28;20112;-75
2021/10/05 03:54:16;;;;;;;2.08;1.27;;;12.40;95.10;;;;;;5020759;28;20068;-76
2021/10/05 03:56:42;;;;;;;2.55;1.25;;;12.30;95.20;;;;;;5021608;28;20037;-75
2021/10/05 03:59:08;;;;;;;4.18;1.27;;;12.30;95.20;;;;;;5022988;28;20192;-74
2021/10/05 04:01:34;;;;;;;2.85;1.70;;;12.30;95.20;;;;;;5021347;28;20033;-76
2021/10/05 04:04:00;;;;;;;3.45;1.45;;;12.30;95.20;;;;;;5024904;28;20037;-77
2021/10/05 04:06:25;;;;;;;2.85;1.55;;;12.30;95.20;;;;;;5021049;28;20149;-76
2021/10/05 04:08:51;;;;;;;3.80;1.70;;;12.30;95.20;;;;;;5039312;28;20033;-76
2021/10/05 04:11:17;;;;;;;2.42;1.20;;;12.30;95.30;;;;;;5021161;28;20374;-76
2021/10/05 04:13:43;;;;;;;4.03;1.70;;;12.30;95.30;;;;;;5014696;28;20454;-76
2021/10/05 04:16:08;;;;;;;3.17;1.70;;;12.30;95.30;;;;;;5012543;28;20434;-76
2021/10/05 04:18:34;;;;;;;2.58;2.25;;;12.30;95.30;;;;;;5024305;28;20032;-76
2021/10/05 04:21:00;;;;;;;3.42;1.52;;;12.30;95.30;;;;;;5023752;28;20022;-76
2021/10/05 04:23:25;;;;;;;3.17;1.50;;;12.30;95.30;;;;;;5047912;28;20024;-76
2021/10/05 04:25:51;;;;;;;2.72;1.63;;;12.20;95.30;;;;;;5032415;28;20032;-76
2021/10/05 04:28:17;;;;;;;2.58;1.73;;;12.30;95.30;;;;;;5020317;28;20370;-75
2021/10/05 04:30:43;;;;;;;2.28;1.25;;;12.30;95.30;;;;;;5032782;28;20041;-76
2021/10/05 04:33:09;;;;;;;3.42;1.42;;;12.30;95.30;;;;;;5031928;28;20082;-73
2021/10/05 04:35:34;;;;;;;3.50;1.70;;;12.30;95.30;;;;;;5027811;28;20080;-75
2021/10/05 04:38:00;;;;;;;5.80;1.85;;;12.30;95.30;;;;;;5009961;28;20020;-76
2021/10/05 04:40:26;;;;;;;3.00;1.27;;;12.30;95.40;;;;;;5009446;28;20028;-76
2021/10/05 04:42:52;;;;;;;2.75;1.33;;;12.30;95.30;;;;;;5009558;28;20421;-76
2021/10/05 04:45:18;;;;;;;2.97;1.70;;;12.30;95.40;;;;;;5010597;28;20025;-76
2021/10/05 04:47:44;;;;;;;3.25;1.67;;;12.30;95.40;;;;;;5010039;28;20040;-77
2021/10/05 04:50:11;;;;;;;3.63;1.73;;;12.30;95.40;;;;;;5024947;28;20112;-77
2021/10/05 04:52:37;;;;;;;2.55;1.58;;;12.30;95.40;;;;;;5010186;28;20442;-76
2021/10/05 04:55:05;;;;;;;3.63;2.10;;;12.30;95.40;;;;;;5009622;28;20101;-77
2021/10/05 04:57:30;;;;;;;4.00;2.20;;;12.30;95.40;;;;;;5026604;28;20018;-77
2021/10/05 04:59:56;;;;;;;5.53;2.30;;;12.30;95.40;;;;;;5020671;28;20037;-77
2021/10/05 05:02:22;;;;;;;3.55;2.00;;;12.30;95.40;;;;;;5017630;28;20029;-78
2021/10/05 05:04:48;;;;;;;4.97;2.10;;;12.30;95.70;;;;;;5020623;28;20410;-77
2021/10/05 05:07:13;;;;;;;4.30;2.20;;;12.30;95.50;;;;;;5008781;28;20063;-75
2021/10/05 05:09:39;;;;;;;4.97;2.65;;;12.30;95.50;;;;;;5019674;28;20027;-77
2021/10/05 05:12:05;;;;;;;4.10;2.70;;;12.20;95.70;;;;;;5041920;28;20462;-76
2021/10/05 05:14:31;;;;;;;5.00;2.65;;;12.30;95.50;;;;;;5029490;28;20033;-76
2021/10/05 05:16:57;;;;;;;6.93;2.30;;;12.30;95.50;;;;;;5029729;28;20401;-75
2021/10/05 05:19:23;;;;;;;4.40;2.60;;;12.30;95.50;;;;;;5031887;28;20382;-76
2021/10/05 05:21:49;;;;;;;3.67;2.22;;;12.20;95.50;;;;;;5031554;28;20363;-76
2021/10/05 05:24:15;;;;;;;3.67;2.22;;;12.20;95.60;;;;;;5031227;28;20029;-75
2021/10/05 05:26:40;;;;;;;4.10;2.50;;;12.20;95.60;;;;;;5031820;28;20029;-75
2021/10/05 05:29:06;;;;;;;8.57;2.75;;;12.20;95.50;;;;;;5029896;28;20025;-75
2021/10/05 05:31:32;;;;;;;4.65;2.30;;;12.20;95.60;;;;;;5030695;28;20319;-76
2021/10/05 05:33:57;;;;;;;7.75;2.65;;;12.10;95.60;;;;;;5031190;28;20458;-76
2021/10/05 05:36:23;;;;;;;5.35;2.60;;;12.10;95.60;;;;;;5031820;28;20100;-76
2021/10/05 05:38:49;;;;;;;4.10;2.17;;;12.10;95.60;;;;;;5030486;28;20024;-76
2021/10/05 05:41:14;;;;;;;3.92;2.38;;;12.10;95.60;;;;;;5031081;28;20449;-76
2021/10/05 05:43:40;;;;;;;5.47;2.45;;;12.10;95.70;;;;;;5030224;28;20508;-75
2021/10/05 05:46:06;;;;;;;4.90;2.47;;;12.10;95.70;;;;;;5031187;28;20029;-76
2021/10/05 05:48:31;;;;;;;4.70;2.42;;;12.10;95.70;;;;;;5030269;28;20040;-75
2021/10/05 05:50:57;;;;;;;4.05;2.33;;;12.10;95.70;;;;;;5029573;28;20405;-75
2021/10/05 05:53:23;;;;;;;4.88;2.63;;;12.00;96.00;;;;;;5031425;28;20017;-75
2021/10/05 05:55:49;;;;;;;4.95;2.70;;;12.10;95.70;;;;;;5031647;28;20026;-75
2021/10/05 05:58:16;;;;;;;5.82;3.05;;;12.10;96.00;;;;;;5030596;28;20167;-75
2021/10/05 06:00:44;;;;;;;5.88;3.35;;;12.10;95.80;;;;;;5031604;28;20399;-76
2021/10/05 06:03:13;;;;;;;6.93;3.53;;;12.10;95.70;;;;;;5029620;28;20026;-76
2021/10/05 06:05:39;;;;;;;5.97;3.10;;;12.10;95.70;;;;;;5031371;28;20075;-76
2021/10/05 06:08:06;;;;;;;6.22;3.13;;;12.10;95.70;;;;;;5029292;28;20040;-76
2021/10/05 06:10:32;;;;;;;5.10;3.28;;;12.10;95.80;;;;;;5029973;28;20029;-75
2021/10/05 06:12:57;;;;;;;4.82;3.03;;;12.10;95.80;;;;;;5031045;28;20037;-75
2021/10/05 06:15:23;;;;;;;4.60;2.58;;;12.10;95.80;;;;;;5030279;28;20025;-75
2021/10/05 06:17:50;;;;;;;6.13;2.90;;;12.10;95.80;;;;;;5031436;28;20034;-76
2021/10/05 06:20:22;;;;;;;5.50;3.10;;;12.00;95.70;;;;;;5029449;28;20219;-76
2021/10/05 06:22:48;;;;;;;9.05;2.80;;;12.10;95.80;;;;;;5030606;28;20462;-76
2021/10/05 06:25:16;;;;;;;5.80;2.90;;;12.10;95.80;;;;;;5034238;28;20029;-75
2021/10/05 06:27:42;;;;;;;4.15;2.88;;;12.10;95.80;;;;;;5034829;28;20055;-75
2021/10/05 06:30:09;;;;;;;6.00;3.47;;;12.10;95.80;;;;;;5034515;28;20033;-76
2021/10/05 06:32:35;;;;;;;4.45;2.67;;;12.10;95.70;;;;;;5033514;28;20106;-76
2021/10/05 06:35:00;;;;;;;5.95;2.85;;;12.10;95.80;;;;;;5032842;28;20110;-76
2021/10/05 06:37:26;;;;;;;4.97;2.90;;;12.10;95.80;;;;;;5034936;28;20080;-75
2021/10/05 06:39:52;;;;;;;6.13;3.13;;;12.10;95.80;;;;;;5034426;28;20029;-77
2021/10/05 06:42:18;;;;;;;6.07;2.97;;;12.10;95.80;;;;;;5032476;28;20167;-77
2021/10/05 06:44:43;;;;;;;5.20;3.03;;;12.10;95.80;;;;;;5034310;28;20434;-77
2021/10/05 06:47:09;;;;;;;4.68;2.67;;;12.10;95.80;;;;;;5034166;28;20117;-77
2021/10/05 06:49:35;;;;;;;6.68;3.00;;;12.10;95.80;;;;;;5034681;28;20425;-77
2021/10/05 06:52:01;;;;;;;5.68;3.58;;;12.20;95.80;;;;;;5032680;28;20037;-77
2021/10/05 06:54:28;;;;;;;4.28;2.55;;;12.20;95.80;;;;;;5033093;28;20481;-77
2021/10/05 06:56:54;;;;;;;5.13;3.00;;;12.20;95.80;;;;;;5033029;28;20022;-77
2021/10/05 06:59:20;;;;;;;4.63;2.80;;;12.20;96.10;;;;;;5032461;28;20025;-77
2021/10/05 07:01:45;;;;;;;4.28;2.53;;;12.20;95.80;;;;;;5033308;28;20385;-77
2021/10/05 07:04:11;;;;;;;5.35;2.50;;;12.20;95.80;;;;;;5032281;28;20117;-77
2021/10/05 07:06:38;;;;;;;5.35;3.00;;;12.30;95.80;;;;;;5032835;28;20112;-78
2021/10/05 07:09:05;;;;;;;5.50;2.80;;;12.30;95.80;;;;;;5033535;28;20025;-76
2021/10/05 07:11:32;;;;;;;4.25;2.33;;;12.30;95.80;;;;;;5034161;28;20535;-75
2021/10/05 07:13:58;;;;;;;6.28;2.50;;;12.30;95.80;;;;;;5034107;28;20060;-75
2021/10/05 07:16:24;;;;;;;3.92;2.70;;;12.30;95.70;;;;;;5033371;28;20045;-76
2021/10/05 07:18:50;;;;;;;4.72;2.60;;;12.30;95.70;;;;;;5034211;28;20026;-76
2021/10/05 07:21:16;;;;;;;5.57;2.90;;;12.40;95.80;;;;;;5033107;28;20032;-76
2021/10/05 07:23:42;;;;;;;5.05;2.65;;;12.40;95.70;;;;;;5033777;28;20121;-76
2021/10/05 07:26:09;;;;;;;5.05;3.05;;;12.40;95.70;;;;;;5033277;28;20458;-77
2021/10/05 07:28:34;;;;;;;5.93;2.78;;;12.50;95.70;;;;;;5032457;28;20030;-77
2021/10/05 07:31:00;;;;;;;5.85;3.00;;;12.50;95.70;;;;;;5033691;28;20029;-75
2021/10/05 07:33:27;;;;;;;5.60;2.92;;;12.60;95.70;;;;;;5033228;28;20100;-75
2021/10/05 07:35:53;;;;;;;7.32;2.67;;;12.60;95.60;;;;;;5031026;28;20132;-75
2021/10/05 07:38:19;;;;;;;7.18;3.22;;;12.70;95.50;;;;;;5032842;28;20064;-75
2021/10/05 07:40:45;;;;;;;4.63;2.75;;;12.80;95.40;;;;;;5033867;28;20119;-75
2021/10/05 07:43:11;;;;;;;4.78;2.90;;;13.00;95.30;;;;;;5032757;28;20123;-75
2021/10/05 07:45:37;;;;;;;5.15;2.75;;;13.00;95.20;;;;;;5033411;28;20040;-75
2021/10/05 07:48:04;;;;;;;4.07;2.47;;;13.10;95.20;;;;;;5031156;28;20116;-75
2021/10/05 07:50:31;;;;;;;4.57;2.55;;;13.20;95.10;;;;;;5033379;28;20041;-75
2021/10/05 07:52:58;;;;;;;6.10;2.60;;;13.20;95.20;;;;;;5031953;28;20519;-76
2021/10/05 07:55:23;;;;;;;6.15;3.30;;;13.10;95.20;;;;;;5031017;28;20032;-76
2021/10/05 07:57:49;;;;;;;5.53;3.05;;;13.10;95.30;;;;;;5031897;28;20026;-76
2021/10/05 08:00:15;;;;;;;6.20;2.83;;;13.00;95.30;;;;;;5032564;28;20026;-76
2021/10/05 08:02:41;;;;;;;8.00;2.47;;;13.00;95.40;;;;;;5031923;28;20095;-76
2021/10/05 08:05:07;;;;;;;6.63;3.05;;;13.00;95.50;;;;;;5032258;28;20412;-76
2021/10/05 08:07:33;;;;;;;8.70;3.35;;;13.00;95.50;;;;;;5032752;28;20038;-76
2021/10/05 08:09:59;;;;;;;6.80;3.67;;;13.00;95.50;;;;;;5031834;28;20144;-76
2021/10/05 08:12:25;;;;;;;5.97;2.83;;;13.00;95.50;;;;;;5032282;28;20053;-76
2021/10/05 08:14:51;;;;;;;4.72;2.38;;;13.00;95.50;;;;;;5031934;28;20044;-76
2021/10/05 08:17:17;;;;;;;5.30;2.70;;;13.10;95.50;;;;;;5032359;28;20052;-77
2021/10/05 08:19:43;;;;;;;6.32;2.92;;;13.10;95.50;;;;;;5031477;28;20160;-77
2021/10/05 08:22:10;;;;;;;6.45;3.10;;;13.10;95.50;;;;;;5030965;28;20068;-77
2021/10/05 08:24:36;;;;;;;6.30;3.03;;;13.20;95.50;;;;;;5033027;28;20488;-78
2021/10/05 08:27:05;;;;;;;5.90;3.08;;;13.20;95.50;;;;;;5032688;28;20105;-76
2021/10/05 08:29:33;;;;;;;3.92;2.17;;;13.20;95.50;;;;;;5032375;28;20032;-76
2021/10/05 08:31:59;;;;;;;5.03;2.90;;;13.20;95.40;;;;;;5032530;28;20097;-76
2021/10/05 08:34:24;;;;;;;4.70;2.55;;;13.30;95.40;;;;;;5032190;28;20553;-75
2021/10/05 08:36:50;;;;;;;3.80;2.15;;;13.30;95.40;;;;;;5032517;28;20033;-76
2021/10/05 08:39:17;;;;;;;6.43;3.03;;;13.40;95.30;;;;;;5032258;28;20033;-77
2021/10/05 08:41:46;;;;;;;5.13;2.90;;;13.40;95.20;;;;;;5032828;28;20025;-77
2021/10/05 08:44:14;;;;;;;4.05;2.33;;;13.50;95.20;;;;;;5030404;28;20042;-77
2021/10/05 08:46:40;;;;;;;5.40;2.85;;;13.50;95.20;;;;;;5032015;28;20029;-77
2021/10/05 08:49:07;;;;;;;3.75;2.13;;;13.60;95.20;;;;;;5030769;28;20025;-77
2021/10/05 08:51:33;;;;;;;6.03;2.70;;;13.60;95.10;;;;;;5031074;28;20018;-75
2021/10/05 08:53:59;;;;;;;4.65;2.65;;;13.60;95.10;;;;;;5032320;28;20473;-76
2021/10/05 08:56:25;;;;;;;4.35;2.17;;;13.60;95.10;;;;;;5030363;28;20032;-76
2021/10/05 08:58:51;;;;;;;5.30;2.75;;;13.70;95.30;;;;;;5032484;28;20151;-76
2021/10/05 09:01:17;;;;;;;3.80;2.20;;;13.70;95.00;;;;;;5031287;28;20100;-75
2021/10/05 09:03:54;;;;;;;5.50;2.58;;;13.70;95.00;;;;;;5032154;28;20032;-76
2021/10/05 09:06:22;;;;;;;5.70;2.92;;;13.80;95.00;;;;;;5030304;28;20025;-76
2021/10/05 09:08:49;;;;;;;5.00;2.58;;;13.80;95.00;;;;;;5030677;28;20156;-76
2021/10/05 09:11:18;;;;;;;5.88;2.80;;;13.90;95.00;;;;;;5030021;28;20032;-76
2021/10/05 09:13:51;;;;;;;4.88;2.75;;;13.90;94.90;;;;;;5032022;28;20112;-76
2021/10/05 09:16:22;;;;;;;4.18;2.30;;;14.00;94.90;;;;;;5031386;28;20025;-76
2021/10/05 09:18:53;;;;;;;4.13;2.63;;;14.00;94.80;;;;;;5030632;28;20374;-76
2021/10/05 09:21:19;;;;;;;4.00;1.98;;;14.10;94.80;;;;;;5031245;28;20018;-76
2021/10/05 09:23:56;;;;;;;4.63;2.40;;;14.10;94.80;;;;;;5030535;28;20116;-76
2021/10/05 09:26:34;;;;;;;3.22;1.92;;;14.20;94.70;;;;;;5031267;28;20410;-77
2021/10/05 09:29:28;;;;;;;3.38;1.80;;;14.20;94.60;;;;;;5030700;28;20045;-77
2021/10/05 09:32:09;;;;;;;6.55;1.98;;;14.30;94.60;;;;;;5033140;28;20037;-76
2021/10/05 09:34:37;;;;;;;3.03;1.73;;;14.40;94.60;;;;;;5031623;28;20025;-76
2021/10/05 09:37:20;;;;;;;5.53;1.73;;;14.40;94.50;;;;;;5031675;28;20021;-76
2021/10/05 09:40:15;;;;;;;3.45;1.70;;;14.50;94.50;;;;;;5031976;28;20029;-76
2021/10/05 09:42:45;;;;;;;2.75;1.80;;;14.50;94.40;;;;;;5029841;28;20050;-76
2021/10/05 09:45:21;;;;;;;2.47;1.30;;;14.60;94.40;;;;;;5029813;28;20030;-76
2021/10/05 09:47:49;;;;;;;3.97;2.00;;;14.60;94.30;;;;;;5031706;28;20033;-77
2021/10/05 09:50:14;;;;;;;3.70;1.98;;;14.70;94.30;;;;;;5029640;28;20319;-74
2021/10/05 09:52:49;;;;;;;3.92;1.95;;;14.70;94.20;;;;;;5030509;28;20486;-77
2021/10/05 09:55:17;;;;;;;4.50;1.70;;;14.70;94.20;;;;;;5029731;28;20021;-77
2021/10/05 09:57:43;;;;;;;2.50;1.48;;;14.80;94.10;;;;;;5032091;28;20028;-77
2021/10/05 10:00:11;;;;;;;5.70;1.73;;;14.90;94.10;;;;;;5034371;28;20026;-77
2021/10/05 10:02:38;;;;;;;3.55;1.70;;;14.90;94.00;;;;;;5035067;28;20026;-77
2021/10/05 10:05:09;;;;;;;2.30;1.35;;;15.00;94.00;;;;;;5034235;28;20048;-78
2021/10/05 10:07:39;;;;;;;2.03;1.20;;;15.10;93.90;;;;;;5034710;28;20113;-78
2021/10/05 10:10:12;;;;;;;2.38;1.05;;;15.10;93.90;;;;;;5034064;28;20037;-75
2021/10/05 10:12:41;;;;;;;2.20;1.27;;;15.10;93.90;;;;;;5035256;28;20025;-75
2021/10/05 10:15:09;;;;;;;3.35;1.42;;;15.20;93.80;;;;;;5035597;28;20109;-75
2021/10/05 10:17:35;;;;;;;2.17;1.40;;;15.30;93.80;;;;;;5034672;28;20507;-76
2021/10/05 10:20:01;;;;;;;2.80;1.08;;;15.30;93.70;;;;;;5034938;28;20029;-76
2021/10/05 10:22:27;;;;;;;2.17;1.10;;;15.30;93.90;;;;;;5034248;28;20485;-76
2021/10/05 10:24:57;;;;;;;2.35;1.17;;;15.40;93.60;;;;;;5033751;28;20147;-76
2021/10/05 10:27:23;;;;;;;3.83;1.20;;;15.40;93.60;;;;;;5034339;28;20603;-76
2021/10/05 10:29:51;;;;;;;6.05;1.70;;;15.40;93.50;;;;;;5034938;28;20029;-75
2021/10/05 10:32:18;;;;;;;2.28;1.15;;;15.50;93.50;;;;;;5034124;28;20017;-76
2021/10/05 10:34:47;;;;;;;2.28;1.35;;;15.60;93.40;;;;;;5034882;28;20485;-76
2021/10/05 10:37:19;;;;;;;2.08;1.17;;;15.70;93.30;;;;;;5033038;28;20167;-75
2021/10/05 10:39:47;;;;;;;2.28;1.20;;;15.80;93.20;;;;;;5033525;28;20033;-75
2021/10/05 10:42:25;;;;;;;2.97;1.52;;;15.80;93.40;;;;;;5034430;28;20021;-76
2021/10/05 10:44:50;;;;;;;2.28;1.33;;;15.90;93.00;;;;;;5033419;28;20366;-76
2021/10/05 10:47:18;;;;;;;2.38;1.20;;;16.10;92.90;;;;;;5032748;28;20044;-76
2021/10/05 10:49:58;;;;;;;2.70;1.30;;;16.20;92.60;;;;;;5034583;28;20028;-76
2021/10/05 10:52:36;;;;;;;2.00;1.20;;;16.40;92.40;;;;;;5033855;28;20167;-77
2021/10/05 10:55:03;;;;;;;2.30;1.08;;;16.60;92.20;;;;;;5033159;28;20522;-76
2021/10/05 10:57:40;;;;;;;3.22;1.27;;;16.70;92.00;;;;;;5033570;28;20104;-76
2021/10/05 11:00:10;;;;;;;3.08;1.10;;;16.80;91.90;;;;;;5033108;28;20021;-77
2021/10/05 11:03:03;;;;;;;1.42;0.90;;;16.90;91.80;;;;;;5033494;28;20035;-77
2021/10/05 11:05:35;;;;;;;1.80;1.27;;;16.90;91.60;;;;;;5032893;28;20034;-76
2021/10/05 11:08:10;;;;;;;1.83;1.30;;;16.90;91.30;;;;;;5032878;28;20040;-76
2021/10/05 11:10:36;;;;;;;4.30;1.40;;;17.00;91.30;;;;;;5033264;28;20492;-76
2021/10/05 11:13:04;;;;;;;2.47;1.35;;;17.10;91.20;;;;;;5032665;28;20341;-76
2021/10/05 11:15:34;;;;;;;3.85;1.25;;;17.10;91.40;;;;;;5033377;28;20462;-76
2021/10/05 11:18:09;;;;;;;3.22;1.15;;;17.00;91.00;;;;;;5032531;28;20022;-77
2021/10/05 11:20:37;;;;;;;1.73;1.00;;;16.90;91.00;;;;;;5033350;28;20032;-76
2021/10/05 11:23:03;;;;;;;2.80;1.10;;;16.90;91.10;;;;;;5032538;28;20040;-76
2021/10/05 11:25:30;;;;;;;1.85;0.98;;;16.80;91.10;;;;;;5033127;28;20502;-77
2021/10/05 11:27:56;;;;;;;4.07;1.48;;;16.80;91.10;;;;;;5033775;28;20037;-77
2021/10/05 11:30:22;;;;;;;1.38;0.90;;;16.80;91.10;;;;;;5033064;28;20474;-76
2021/10/05 11:32:49;;;;;;;1.65;0.93;;;16.90;91.10;;;;;;5033847;28;20017;-77
2021/10/05 11:35:15;;;;;;;2.55;1.10;;;16.90;91.10;;;;;;5033797;28;20072;-77
2021/10/05 11:37:40;;;;;;;3.83;1.20;;;16.90;91.00;;;;;;5033265;28;20041;-76
2021/10/05 11:40:06;;;;;;;3.03;1.02;;;16.90;90.90;;;;;;5032303;28;20064;-77
2021/10/05 11:42:32;;;;;;;3.42;1.27;;;16.90;90.70;;;;;;5032748;28;20046;-76
2021/10/05 11:45:05;;;;;;;4.00;0.93;;;16.90;90.50;;;;;;5033628;28;20481;-77
2021/10/05 11:47:32;;;;;;;1.45;1.10;;;16.90;90.50;;;;;;5032856;28;20033;-76
2021/10/05 11:50:07;;;;;;;2.47;0.88;;;16.90;90.50;;;;;;5033523;28;20026;-77
2021/10/05 11:52:40;;;;;;;1.20;0.73;;;17.00;90.50;;;;;;5032781;28;20025;-77
2021/10/05 11:55:06;;;;;;;1.05;0.70;;;17.00;90.40;;;;;;5033480;28;20454;-77
2021/10/05 11:57:37;;;;;;;2.13;1.10;;;17.00;90.20;;;;;;5032794;28;20026;-77
2021/10/05 12:00:10;;;;;;;3.17;1.02;;;17.00;90.30;;;;;;5033259;28;20017;-77
2021/10/05 12:02:42;;;;;;;1.25;0.90;;;17.00;90.20;;;;;;5032566;28;20017;-76
2021/10/05 12:05:23;;;;;;;1.98;1.17;;;17.00;90.10;;;;;;5033245;28;20025;-76
2021/10/05 12:07:49;;;;;;;4.03;1.30;;;17.00;90.00;;;;;;5033102;28;20069;-75
2021/10/05 12:10:16;;;;;;;1.75;0.88;;;17.00;89.90;;;;;;5031757;28;20026;-78
2021/10/05 12:12:42;;;;;;;1.58;1.00;;;17.00;89.90;;;;;;5032162;28;20033;-76
2021/10/05 12:15:16;;;;;;;2.85;1.05;;;17.00;89.80;;;;;;5032999;28;20385;-77
2021/10/05 12:17:43;;;;;;;2.13;0.73;;;17.00;89.80;;;;;;5032406;28;20026;-77
2021/10/05 12:20:12;;;;;;;1.80;0.90;;;17.00;89.90;;;;;;5032655;28;20029;-77
2021/10/05 12:22:42;;;;;;;4.20;1.20;;;17.00;89.90;;;;;;5031821;28;20509;-77
2021/10/05 12:25:16;;;;;;;3.00;1.13;;;16.90;89.70;;;;;;5031657;28;20017;-77
2021/10/05 12:27:46;;;;;;;3.67;1.13;;;16.90;90.00;;;;;;5031668;28;20394;-77
2021/10/05 12:30:38;;;;;;;2.38;1.20;;;16.80;90.00;;;;;;5032768;28;20029;-77
2021/10/05 12:33:10;;;;;;;1.73;0.95;;;16.80;90.10;;;;;;5031088;28;20061;-77
2021/10/05 12:35:37;;;;;;;1.50;0.80;;;16.80;90.10;;;;;;5032070;28;20100;-77
2021/10/05 12:38:17;;;;;;;1.40;0.80;;;16.80;90.10;;;;;;5031339;28;20025;-77
2021/10/05 12:40:49;;;;;;;2.35;1.17;;;16.80;90.20;;;;;;5030373;28;20030;-77
2021/10/05 12:43:19;;;;;;;2.38;1.08;;;16.80;90.20;;;;;;5030846;28;20556;-77
2021/10/05 12:45:58;;;;;;;3.25;1.63;;;16.80;90.20;;;;;;5032162;28;20028;-77
2021/10/05 12:48:36;;;;;;;2.20;1.30;;;16.90;90.30;;;;;;5030749;28;20454;-77
2021/10/05 12:51:05;;;;;;;1.77;1.02;;;16.90;90.30;;;;;;5032541;28;20086;-77